Time;durP1;ratioP1;P1;durP2;ratioP2;P2;SDS_P1;SDS_P2;PMS_P1;PMS_P2;Temp;Humidity;BMP_temperature;BMP_pressure;BME280_temperature;BME280_humidity;BME280_pressure;Samples;Min_cycle;Max_cycle;Signal;HPM_P1;HPM_P2
2022/07/13 00:00:10;;;;;;;9.60;7.30;;;;;;;20.47;73.20;102045.25;5081935;28;20136;-75
2022/07/13 00:02:39;;;;;;;9.70;7.35;;;;;;;20.45;73.63;102039.16;5085507;28;20064;-76
2022/07/13 00:05:07;;;;;;;8.27;7.43;;;;;;;20.46;73.89;102036.38;5085455;28;20041;-75
2022/07/13 00:07:35;;;;;;;9.68;7.07;;;;;;;20.46;73.91;102032.81;5087931;28;20041;-75
2022/07/13 00:10:04;;;;;;;8.90;6.93;;;;;;;20.46;73.91;102035.50;5072770;28;20130;-73
2022/07/13 00:12:31;;;;;;;10.02;6.80;;;;;;;20.45;73.71;102040.00;5093127;28;20131;-75
2022/07/13 00:14:58;;;;;;;8.98;6.90;;;;;;;20.46;73.62;102035.50;5083245;28;20119;-74
2022/07/13 00:17:25;;;;;;;9.77;6.53;;;;;;;20.44;72.88;102024.88;5094417;28;20044;-73
2022/07/13 00:19:52;;;;;;;8.45;6.80;;;;;;;20.43;72.68;102035.69;5089596;28;20052;-73
2022/07/13 00:22:20;;;;;;;8.27;6.50;;;;;;;20.43;71.99;102033.84;5092706;28;20087;-72
2022/07/13 00:24:47;;;;;;;8.43;6.22;;;;;;;20.43;72.02;102036.53;5090462;28;21001;-74
2022/07/13 00:27:14;;;;;;;11.07;6.78;;;;;;;20.43;72.30;102031.19;5090803;28;20043;-73
2022/07/13 00:29:41;;;;;;;9.40;6.53;;;;;;;20.43;71.93;102028.50;5085648;28;20522;-74
2022/07/13 00:32:08;;;;;;;9.07;6.25;;;;;;;20.44;71.97;102037.41;5093142;28;20503;-74
2022/07/13 00:34:36;;;;;;;8.15;6.90;;;;;;;20.42;71.76;102024.09;5090459;28;20036;-74
2022/07/13 00:37:03;;;;;;;9.85;6.93;;;;;;;20.40;71.90;102019.75;5091440;28;20097;-74
2022/07/13 00:39:30;;;;;;;10.85;7.05;;;;;;;20.40;71.43;102017.09;5090638;28;20040;-74
2022/07/13 00:41:57;;;;;;;8.93;6.38;;;;;;;20.40;71.48;102009.91;5091400;28;20099;-74
2022/07/13 00:44:24;;;;;;;8.25;6.43;;;;;;;20.40;71.63;102014.41;5088656;28;20041;-74
2022/07/13 00:46:54;;;;;;;6.80;6.10;;;;;;;20.41;71.63;102016.16;5090727;28;20032;-75
2022/07/13 00:49:22;;;;;;;9.23;6.28;;;;;;;20.42;71.62;101997.31;5090643;28;20041;-74
2022/07/13 00:51:50;;;;;;;6.72;5.55;;;;;;;20.41;71.01;101986.69;5094181;28;20039;-74
2022/07/13 00:54:28;;;;;;;10.50;6.18;;;;;;;20.39;70.54;101989.47;5088033;28;20474;-75
2022/07/13 00:57:01;;;;;;;8.80;6.13;;;;;;;20.39;70.36;101969.84;5072209;28;20076;-75
2022/07/13 00:59:28;;;;;;;11.13;6.45;;;;;;;20.36;71.11;101956.59;5077443;28;20481;-75
2022/07/13 01:01:55;;;;;;;1.38;1.02;;;;;;;20.29;71.28;101954.28;5087032;28;20409;-74
2022/07/13 01:04:23;;;;;;;9.35;6.32;;;;;;;20.21;72.04;101955.63;5090302;28;20048;-73
2022/07/13 01:06:54;;;;;;;10.32;6.72;;;;;;;20.16;72.69;101961.22;5091104;28;20071;-74
2022/07/13 01:09:22;;;;;;;11.50;7.78;;;;;;;20.09;72.91;101978.56;5087825;28;20053;-75
2022/07/13 01:11:53;;;;;;;8.90;6.40;;;;;;;20.06;73.52;101974.25;5086854;28;20143;-72
2022/07/13 01:14:21;;;;;;;12.40;7.05;;;;;;;20.07;73.55;101977.75;5091003;28;20039;-71
2022/07/13 01:16:49;;;;;;;11.68;6.60;;;;;;;20.09;73.70;101968.72;5090030;28;20056;-72
2022/07/13 01:19:17;;;;;;;8.73;6.25;;;;;;;20.15;73.48;101979.09;5090075;28;20090;-72
2022/07/13 01:21:48;;;;;;;7.93;6.05;;;;;;;20.20;73.73;101968.16;5075469;28;20815;-73
2022/07/13 01:24:16;;;;;;;7.45;5.57;;;;;;;20.26;73.67;101958.94;5084867;28;20044;-72
2022/07/13 01:26:44;;;;;;;8.85;6.20;;;;;;;20.31;72.91;101955.06;5088731;28;20040;-75
2022/07/13 01:29:11;;;;;;;8.93;6.28;;;;;;;20.32;72.81;101954.09;5091005;28;20044;-73
2022/07/13 01:31:41;;;;;;;9.18;6.93;;;;;;;20.36;72.47;101957.47;5073377;28;20048;-73
2022/07/13 01:34:09;;;;;;;8.65;6.80;;;;;;;20.38;72.11;101944.00;5084409;28;20040;-73
2022/07/13 01:36:38;;;;;;;8.48;6.68;;;;;;;20.40;71.56;101942.97;5085829;28;20047;-73
2022/07/13 01:39:06;;;;;;;10.65;7.53;;;;;;;20.42;71.54;101949.09;5082933;28;20076;-73
2022/07/13 01:41:33;;;;;;;10.48;6.93;;;;;;;20.45;71.17;101956.13;5086623;28;20796;-73
2022/07/13 01:44:01;;;;;;;9.60;6.78;;;;;;;20.49;71.29;101941.59;5091856;28;20075;-73
2022/07/13 01:46:29;;;;;;;8.02;6.00;;;;;;;20.53;70.37;101940.50;5095869;28;20041;-72
2022/07/13 01:49:03;;;;;;;8.60;6.13;;;;;;;20.57;70.29;101930.47;5086818;28;20110;-72
2022/07/13 01:51:30;;;;;;;6.85;6.22;;;;;;;20.60;69.05;101933.84;5082583;28;20033;-71
2022/07/13 01:53:57;;;;;;;7.72;5.82;;;;;;;20.63;69.39;101933.69;5070825;28;20045;-71
2022/07/13 01:56:25;;;;;;;9.38;5.30;;;;;;;20.65;69.30;101938.94;5076601;28;20086;-72
2022/07/13 01:58:53;;;;;;;6.60;4.78;;;;;;;20.68;69.23;101925.38;5089758;28;20052;-72
2022/07/13 02:01:23;;;;;;;8.02;5.63;;;;;;;20.70;68.95;101920.81;5091660;28;20052;-71
2022/07/13 02:03:54;;;;;;;6.47;4.82;;;;;;;20.71;68.15;101914.47;5070477;28;20053;-72
2022/07/13 02:06:22;;;;;;;8.13;4.85;;;;;;;20.73;66.84;101909.91;5085199;28;20044;-72
2022/07/13 02:08:49;;;;;;;8.43;4.78;;;;;;;20.76;67.45;101911.56;5088862;28;20037;-72
2022/07/13 02:11:20;;;;;;;8.43;5.13;;;;;;;20.82;67.24;101910.34;5086909;28;20047;-73
2022/07/13 02:13:47;;;;;;;6.80;4.90;;;;;;;20.87;66.28;101913.66;5092012;28;20580;-72
2022/07/13 02:16:16;;;;;;;6.10;4.88;;;;;;;20.92;65.93;101903.53;5074462;28;20060;-73
2022/07/13 02:18:44;;;;;;;6.35;5.30;;;;;;;20.94;66.23;101901.63;5085046;28;20743;-72
2022/07/13 02:21:12;;;;;;;7.18;5.65;;;;;;;20.95;65.95;101900.66;5069534;28;20496;-72
2022/07/13 02:23:41;;;;;;;8.48;5.22;;;;;;;20.96;65.91;101913.13;5090434;28;20148;-72
2022/07/13 02:26:08;;;;;;;6.35;5.07;;;;;;;20.98;65.87;101905.88;5073084;28;20037;-71
2022/07/13 02:28:44;;;;;;;6.70;4.95;;;;;;;20.98;66.15;101891.59;5064586;28;20120;-71
2022/07/13 02:31:13;;;;;;;6.70;5.47;;;;;;;20.99;65.98;101901.34;5064941;28;20091;-71
2022/07/13 02:33:42;;;;;;;5.53;4.82;;;;;;;21.00;65.80;101893.25;5071918;28;20084;-72
2022/07/13 02:36:09;;;;;;;8.02;5.57;;;;;;;21.00;65.50;101897.72;5090638;28;20112;-73
2022/07/13 02:38:36;;;;;;;7.63;5.50;;;;;;;20.99;65.71;101904.91;5071237;28;20080;-73
2022/07/13 02:41:03;;;;;;;8.35;5.68;;;;;;;21.01;65.63;101891.41;5064727;28;20045;-72
2022/07/13 02:43:30;;;;;;;16.50;5.68;;;;;;;21.02;65.76;101899.34;5069697;28;20072;-73
2022/07/13 02:45:57;;;;;;;6.53;5.30;;;;;;;21.00;65.52;101898.59;5070948;28;20049;-71
2022/07/13 02:48:25;;;;;;;6.25;4.80;;;;;;;20.99;65.53;101893.31;5070721;28;20539;-71
2022/07/13 02:50:52;;;;;;;7.65;5.32;;;;;;;20.97;65.30;101888.06;5087685;28;20095;-72
2022/07/13 02:53:19;;;;;;;6.22;5.55;;;;;;;20.98;65.49;101883.53;5077356;28;20285;-71
2022/07/13 02:55:46;;;;;;;6.50;5.13;;;;;;;20.99;65.60;101893.31;5055413;28;20486;-72
2022/07/13 02:58:13;;;;;;;13.50;5.10;;;;;;;20.96;65.55;101886.31;5067441;28;20044;-71
2022/07/13 03:00:41;;;;;;;9.93;5.30;;;;;;;20.95;65.59;101889.94;5088647;28;20971;-71
2022/07/13 03:03:08;;;;;;;7.72;4.90;;;;;;;20.94;65.43;101877.50;5081000;28;20130;-71
2022/07/13 03:05:35;;;;;;;5.72;4.80;;;;;;;20.92;65.59;101882.06;5110665;28;20037;-71
2022/07/13 03:08:02;;;;;;;6.53;4.55;;;;;;;20.89;65.89;101880.44;5086945;28;20134;-72
2022/07/13 03:10:31;;;;;;;8.35;4.18;;;;;;;20.86;65.94;101882.44;5067917;28;20413;-72
2022/07/13 03:13:00;;;;;;;7.60;4.60;;;;;;;20.82;66.07;101875.53;5095825;28;20033;-72
2022/07/13 03:15:27;;;;;;;6.15;4.15;;;;;;;20.81;66.03;101871.16;5100280;28;20055;-72
2022/07/13 03:17:57;;;;;;;7.00;4.30;;;;;;;20.78;66.02;101867.69;5117549;28;20037;-72
2022/07/13 03:20:24;;;;;;;5.93;4.45;;;;;;;20.77;66.18;101871.31;5090279;28;20044;-73
2022/07/13 03:22:51;;;;;;;5.00;3.95;;;;;;;20.76;66.40;101864.22;5087814;28;20711;-72
2022/07/13 03:25:20;;;;;;;5.03;3.78;;;;;;;20.76;65.96;101869.56;5090108;28;20143;-73
2022/07/13 03:27:51;;;;;;;5.15;4.15;;;;;;;20.76;65.95;101877.63;5101881;27;20514;-71
2022/07/13 03:30:20;;;;;;;6.18;4.00;;;;;;;20.75;65.47;101875.88;5093000;28;20096;-72
2022/07/13 03:32:48;;;;;;;5.50;3.78;;;;;;;20.75;65.73;101867.00;5081733;28;20048;-73
2022/07/13 03:35:16;;;;;;;6.35;4.32;;;;;;;20.75;66.17;101861.63;5099970;28;20053;-72
2022/07/13 03:37:46;;;;;;;5.50;3.80;;;;;;;20.72;65.90;101859.94;5096795;28;20047;-73
2022/07/13 03:40:14;;;;;;;4.85;3.88;;;;;;;20.71;66.09;101858.22;5101138;28;20136;-72
2022/07/13 03:42:42;;;;;;;7.50;4.00;;;;;;;20.70;66.16;101850.28;5060612;28;20045;-72
2022/07/13 03:45:10;;;;;;;5.85;3.83;;;;;;;20.69;66.05;101835.16;5092125;28;20068;-72
2022/07/13 03:47:38;;;;;;;8.90;3.78;;;;;;;20.66;66.35;101825.47;5078957;28;20095;-71
2022/07/13 03:50:07;;;;;;;6.45;3.70;;;;;;;20.66;66.25;101832.63;5077398;28;20065;-72
2022/07/13 03:52:40;;;;;;;7.68;4.38;;;;;;;20.61;66.16;101835.59;5075322;28;20052;-72
2022/07/13 03:55:08;;;;;;;5.60;4.47;;;;;;;20.61;65.96;101846.28;5075419;28;20043;-72
2022/07/13 03:57:36;;;;;;;6.32;4.85;;;;;;;20.62;65.64;101842.66;5071768;28;20041;-72
2022/07/13 04:00:04;;;;;;;7.03;4.20;;;;;;;20.63;65.92;101837.25;5086456;28;20110;-71
2022/07/13 04:02:41;;;;;;;7.80;4.47;;;;;;;20.66;65.75;101835.31;5073515;28;20045;-71
2022/07/13 04:05:11;;;;;;;8.20;4.97;;;;;;;20.69;65.69;101836.03;5100518;28;20065;-72
2022/07/13 04:07:42;;;;;;;5.10;4.38;;;;;;;20.71;65.45;101836.78;5109260;28;20094;-71
2022/07/13 04:10:10;;;;;;;7.18;4.35;;;;;;;20.74;65.39;101841.16;5085694;28;20039;-71
2022/07/13 04:12:42;;;;;;;7.97;4.40;;;;;;;20.77;65.25;101835.59;5067376;28;20037;-71
2022/07/13 04:15:09;;;;;;;6.03;4.25;;;;;;;20.77;65.31;101832.91;5089995;28;20492;-71
2022/07/13 04:17:41;;;;;;;12.27;4.43;;;;;;;20.79;65.54;101836.38;5092532;28;20053;-71
2022/07/13 04:20:10;;;;;;;11.07;5.28;;;;;;;20.82;65.09;101838.00;5075992;28;20055;-71
2022/07/13 04:22:41;;;;;;;10.57;5.00;;;;;;;20.81;65.12;101837.16;5084318;28;20048;-70
2022/07/13 04:25:08;;;;;;;9.30;5.30;;;;;;;20.83;65.34;101820.97;5072171;28;20051;-73
2022/07/13 04:27:35;;;;;;;8.18;5.10;;;;;;;20.89;65.46;101831.38;5089875;28;20038;-73
2022/07/13 04:30:03;;;;;;;6.32;4.72;;;;;;;20.94;65.21;101832.81;5092024;28;20039;-73
2022/07/13 04:32:31;;;;;;;7.13;5.18;;;;;;;20.99;65.61;101829.00;5086220;28;20056;-72
2022/07/13 04:34:58;;;;;;;14.63;6.00;;;;;;;21.01;65.41;101822.56;5085971;28;20048;-72
2022/07/13 04:37:28;;;;;;;6.70;5.22;;;;;;;21.03;65.63;101814.47;5070488;28;20522;-74
2022/07/13 04:39:57;;;;;;;9.85;5.93;;;;;;;21.03;65.40;101817.16;5084417;28;20413;-72
2022/07/13 04:42:27;;;;;;;13.88;5.45;;;;;;;21.02;65.43;101810.91;5091050;28;20043;-72
2022/07/13 04:44:54;;;;;;;7.95;5.40;;;;;;;21.03;65.39;101809.09;5075659;28;20125;-71
2022/07/13 04:47:21;;;;;;;10.63;5.57;;;;;;;21.07;65.33;101813.31;5070105;28;20040;-72
2022/07/13 04:49:49;;;;;;;7.82;5.45;;;;;;;21.15;64.92;101807.50;5094212;28;20086;-72
2022/07/13 04:52:16;;;;;;;11.90;5.60;;;;;;;21.24;64.70;101809.63;5100867;28;20060;-72
2022/07/13 04:54:44;;;;;;;6.90;5.45;;;;;;;21.36;64.69;101800.00;5083736;28;20033;-71
2022/07/13 04:57:11;;;;;;;12.48;6.05;;;;;;;21.48;64.36;101796.53;5094778;28;20056;-72
2022/07/13 04:59:40;;;;;;;12.10;6.18;;;;;;;21.54;64.25;101790.81;5089089;28;20143;-71
2022/07/13 05:02:09;;;;;;;8.50;5.72;;;;;;;21.57;63.90;101803.16;5076819;28;20044;-71
2022/07/13 05:04:36;;;;;;;9.07;5.13;;;;;;;21.58;64.07;101804.91;5087535;28;20868;-71
2022/07/13 05:07:04;;;;;;;21.42;6.93;;;;;;;21.65;63.05;101800.03;5072039;28;20047;-71
2022/07/13 05:09:33;;;;;;;19.60;5.65;;;;;;;21.68;63.12;101803.41;5074764;28;20079;-71
2022/07/13 05:12:00;;;;;;;11.63;7.30;;;;;;;21.78;63.25;101805.50;5094104;28;20040;-71
2022/07/13 05:14:28;;;;;;;9.80;5.97;;;;;;;21.91;63.02;101802.91;5073654;28;20044;-72
2022/07/13 05:16:56;;;;;;;8.07;5.97;;;;;;;21.99;63.13;101797.91;5082996;28;20059;-72
2022/07/13 05:19:24;;;;;;;8.88;5.53;;;;;;;22.05;63.06;101793.97;5068690;28;20507;-72
2022/07/13 05:21:51;;;;;;;20.17;6.78;;;;;;;22.09;62.94;101799.03;5077920;28;20045;-71
2022/07/13 05:24:18;;;;;;;24.98;6.93;;;;;;;22.14;62.64;101796.06;5060581;28;20047;-71
2022/07/13 05:26:45;;;;;;;12.27;5.50;;;;;;;22.23;62.70;101797.28;5088443;28;20040;-72
2022/07/13 05:29:12;;;;;;;17.20;6.07;;;;;;;22.32;61.03;101794.00;5077742;28;20048;-72
2022/07/13 05:31:41;;;;;;;14.30;5.30;;;;;;;22.41;61.18;101789.91;5080271;28;20045;-72
2022/07/13 05:34:10;;;;;;;14.35;5.63;;;;;;;22.53;60.30;101797.16;5080637;28;20049;-72
2022/07/13 05:36:42;;;;;;;21.77;6.25;;;;;;;22.65;59.49;101793.63;5071640;28;20111;-70
2022/07/13 05:39:09;;;;;;;12.18;4.70;;;;;;;22.95;58.91;101791.69;5074375;28;20040;-70
2022/07/13 05:41:36;;;;;;;30.23;6.50;;;;;;;23.04;56.80;101788.38;5085040;28;20128;-71
2022/07/13 05:44:04;;;;;;;8.57;4.88;;;;;;;23.16;56.79;101797.41;5069214;28;20150;-71
2022/07/13 05:46:31;;;;;;;15.60;4.78;;;;;;;23.27;57.06;101792.19;5082977;28;20049;-71
2022/07/13 05:48:59;;;;;;;14.70;5.07;;;;;;;23.35;56.52;101791.66;5064248;28;20529;-71
2022/07/13 05:51:28;;;;;;;13.88;4.93;;;;;;;23.43;55.59;101793.81;5070964;28;20048;-72
2022/07/13 05:54:03;;;;;;;16.27;4.93;;;;;;;23.47;54.78;101802.53;5086140;28;20053;-71
2022/07/13 05:56:52;;;;;;;10.73;4.70;;;;;;;23.48;54.93;101809.63;5074016;28;20052;-73
2022/07/13 05:59:21;;;;;;;14.70;5.00;;;;;;;23.49;54.54;101809.50;5077550;28;20129;-72
2022/07/13 06:01:49;;;;;;;17.13;4.82;;;;;;;23.49;55.02;101812.22;5077073;28;20049;-72
2022/07/13 06:04:17;;;;;;;21.75;4.75;;;;;;;23.51;55.07;101815.66;5105992;28;20045;-73
2022/07/13 06:06:47;;;;;;;13.65;4.22;;;;;;;23.51;54.83;101815.66;5110928;28;20558;-73
2022/07/13 06:09:15;;;;;;;17.23;4.70;;;;;;;23.56;54.36;101818.03;5093906;28;20063;-72
2022/07/13 06:11:46;;;;;;;20.55;5.18;;;;;;;23.55;54.59;101822.53;5078783;28;20523;-72
2022/07/13 06:14:14;;;;;;;16.75;4.18;;;;;;;23.54;54.42;101810.06;5084534;28;20060;-72
2022/07/13 06:16:42;;;;;;;20.98;4.72;;;;;;;23.56;54.43;101812.66;5091412;28;20053;-73
2022/07/13 06:19:10;;;;;;;25.55;4.50;;;;;;;23.57;54.93;101811.69;5077787;28;20033;-72
2022/07/13 06:21:38;;;;;;;17.17;4.72;;;;;;;23.58;54.97;101811.56;5104399;28;20131;-72
2022/07/13 06:24:06;;;;;;;16.45;4.40;;;;;;;23.62;54.54;101830.19;5073198;28;20489;-72
2022/07/13 06:26:34;;;;;;;12.07;4.00;;;;;;;23.67;54.57;101817.25;5072194;28;20169;-72
2022/07/13 06:29:01;;;;;;;13.85;4.13;;;;;;;23.70;54.71;101812.53;5095548;28;20048;-72
2022/07/13 06:31:31;;;;;;;10.43;4.03;;;;;;;23.79;54.92;101818.25;5095199;28;20040;-72
2022/07/13 06:33:59;;;;;;;11.88;3.60;;;;;;;23.95;55.00;101818.88;5077362;28;20045;-72
2022/07/13 06:36:27;;;;;;;9.65;3.35;;;;;;;24.08;54.07;101812.63;5078662;28;20496;-71
2022/07/13 06:38:55;;;;;;;23.45;4.75;;;;;;;24.13;53.75;101810.44;5085877;28;20062;-72
2022/07/13 06:41:23;;;;;;;15.80;4.40;;;;;;;24.10;53.38;101805.28;5054585;28;20093;-71
2022/07/13 06:43:51;;;;;;;11.57;3.70;;;;;;;24.08;53.29;101816.16;5086128;28;20048;-71
2022/07/13 06:46:19;;;;;;;14.73;3.53;;;;;;;24.07;54.03;101808.19;5110550;28;20142;-71
2022/07/13 06:48:53;;;;;;;18.95;4.45;;;;;;;24.07;54.20;101792.88;5094375;28;20139;-71
2022/07/13 06:51:21;;;;;;;12.32;3.30;;;;;;;24.12;53.78;101803.31;5095429;28;20041;-76
2022/07/13 06:53:49;;;;;;;19.13;4.35;;;;;;;24.21;54.07;101796.41;5091368;28;20091;-76
2022/07/13 06:56:19;;;;;;;17.38;3.50;;;;;;;24.37;53.02;101796.13;5078345;28;20799;-75
2022/07/13 06:58:48;;;;;;;28.45;5.05;;;;;;;24.49;52.78;101790.69;5074177;28;20598;-76
2022/07/13 07:01:16;;;;;;;11.27;3.22;;;;;;;24.60;51.78;101805.19;5074661;28;20041;-75
2022/07/13 07:03:45;;;;;;;8.73;2.85;;;;;;;24.65;51.40;101797.66;5114116;27;20474;-76
2022/07/13 07:06:13;;;;;;;18.00;4.10;;;;;;;24.69;51.45;101796.44;5127765;27;20086;-75
2022/07/13 07:08:42;;;;;;;12.10;3.60;;;;;;;24.89;51.47;101796.78;5093292;28;20037;-74
2022/07/13 07:11:09;;;;;;;10.48;3.10;;;;;;;25.10;50.31;101805.91;5095166;28;20408;-75
2022/07/13 07:13:37;;;;;;;17.33;3.78;;;;;;;25.24;50.45;101809.38;5093135;28;20048;-75
2022/07/13 07:16:05;;;;;;;9.93;3.47;;;;;;;25.28;50.83;101805.47;5126625;27;20052;-75
2022/07/13 07:18:33;;;;;;;10.13;3.40;;;;;;;25.32;50.21;101806.09;5094703;28;20120;-71
2022/07/13 07:21:01;;;;;;;7.63;3.70;;;;;;;25.35;50.28;101812.13;5094327;28;20573;-71
2022/07/13 07:23:29;;;;;;;7.75;3.22;;;;;;;25.34;49.43;101828.41;5091482;28;20055;-71
2022/07/13 07:25:56;;;;;;;6.28;3.42;;;;;;;25.29;50.06;101823.38;5093122;28;20116;-71
2022/07/13 07:28:24;;;;;;;24.05;4.22;;;;;;;25.32;50.47;101823.13;5105817;28;20562;-69
2022/07/13 07:30:52;;;;;;;13.13;3.40;;;;;;;25.44;50.38;101815.94;5082370;28;20049;-69
2022/07/13 07:33:20;;;;;;;12.20;3.70;;;;;;;25.52;50.40;101812.66;5079004;28;20095;-70
2022/07/13 07:35:47;;;;;;;6.93;3.63;;;;;;;25.62;50.19;101804.69;5076638;28;20500;-71
2022/07/13 07:38:15;;;;;;;4.22;3.08;;;;;;;25.77;49.60;101808.00;5082787;28;20040;-71
2022/07/13 07:40:43;;;;;;;8.63;3.65;;;;;;;25.94;49.60;101794.00;5094127;28;20502;-70
2022/07/13 07:43:12;;;;;;;6.78;3.50;;;;;;;26.02;49.48;101794.22;5089918;28;20048;-71
2022/07/13 07:45:40;;;;;;;5.68;3.50;;;;;;;25.97;49.14;101795.59;5074042;28;20052;-70
2022/07/13 07:48:08;;;;;;;5.38;3.30;;;;;;;25.86;49.09;101797.31;5084294;28;20516;-70
2022/07/13 07:50:35;;;;;;;22.55;4.68;;;;;;;25.82;49.08;101806.66;5089406;28;20581;-70
2022/07/13 07:53:03;;;;;;;5.78;3.72;;;;;;;25.92;49.44;101808.63;5086918;28;20917;-69
2022/07/13 07:55:30;;;;;;;9.57;3.53;;;;;;;26.02;49.01;101791.53;5091154;28;20080;-70
2022/07/13 07:58:00;;;;;;;13.57;4.20;;;;;;;26.37;48.99;101791.50;5109662;28;20535;-70
2022/07/13 08:00:30;;;;;;;14.38;3.95;;;;;;;26.69;48.50;101793.34;5088739;28;20479;-69
2022/07/13 08:03:03;;;;;;;18.35;5.20;;;;;;;26.87;47.75;101790.94;5070652;28;20053;-70
2022/07/13 08:05:31;;;;;;;7.82;3.70;;;;;;;26.92;47.50;101794.13;5086265;28;20583;-70
2022/07/13 08:08:00;;;;;;;31.63;5.10;;;;;;;26.92;47.70;101792.28;5052918;28;20056;-71
2022/07/13 08:10:28;;;;;;;11.35;3.65;;;;;;;26.93;46.22;101790.44;5074070;28;20098;-71
2022/07/13 08:13:04;;;;;;;37.60;5.82;;;;;;;26.89;46.52;101787.16;5091338;28;20041;-70
2022/07/13 08:15:34;;;;;;;10.75;3.88;;;;;;;26.88;46.79;101790.84;5099821;27;20064;-70
2022/07/13 08:18:02;;;;;;;18.40;3.92;;;;;;;27.17;46.41;101792.00;5114055;27;20048;-71
2022/07/13 08:20:33;;;;;;;14.88;4.32;;;;;;;27.20;46.84;101787.22;5098395;28;20041;-71
2022/07/13 08:23:50;;;;;;;10.98;3.83;;;;;;;27.46;46.11;101783.25;5095476;28;20048;-72
2022/07/13 08:25:52;;;;;;;15.63;4.57;;;;;;;27.68;45.50;101782.19;5112478;28;20040;-72
2022/07/13 08:28:20;;;;;;;5.85;3.50;;;;;;;27.95;45.49;101784.28;5078343;28;20029;-72
2022/07/13 08:30:48;;;;;;;9.13;4.20;;;;;;;28.16;44.85;101791.50;5115974;28;20037;-71
2022/07/13 08:33:16;;;;;;;11.25;4.28;;;;;;;28.27;44.54;101783.25;5099999;28;20037;-72
2022/07/13 08:38:38;;;;;;;18.50;4.50;;;;;;;28.24;44.98;101788.06;5121125;27;20415;-72
2022/07/13 08:41:05;;;;;;;7.32;2.95;;;;;;;28.19;44.87;101789.38;5113651;28;20051;-71
2022/07/13 08:43:34;;;;;;;26.88;3.97;;;;;;;28.30;45.37;101782.97;5112300;28;20043;-70
2022/07/13 08:46:08;;;;;;;18.67;4.10;;;;;;;28.45;45.17;101782.56;5104543;28;20045;-70
2022/07/13 08:48:41;;;;;;;13.77;4.03;;;;;;;28.59;44.54;101787.53;5093661;28;20055;-71
2022/07/13 08:51:09;;;;;;;10.00;3.88;;;;;;;28.62;44.24;101789.97;5092907;28;20040;-71
2022/07/13 08:53:36;;;;;;;5.10;3.50;;;;;;;28.63;43.94;101788.97;5094425;28;20075;-71
2022/07/13 08:56:04;;;;;;;11.23;4.00;;;;;;;28.56;43.64;101789.69;5113196;28;20040;-71
2022/07/13 08:58:31;;;;;;;9.75;4.57;;;;;;;28.42;44.00;101796.38;5109072;28;20067;-71
2022/07/13 09:01:00;;;;;;;10.73;3.65;;;;;;;28.30;44.61;101795.66;5092697;28;20047;-71
2022/07/13 09:03:34;;;;;;;7.47;3.83;;;;;;;28.24;45.15;101797.09;5093761;28;21339;-71
2022/07/13 09:06:04;;;;;;;8.88;4.07;;;;;;;28.25;44.85;101803.34;5112315;28;20059;-72
2022/07/13 09:08:44;;;;;;;23.55;4.75;;;;;;;28.23;44.95;101808.91;5112619;28;20036;-71
2022/07/13 09:11:11;;;;;;;17.88;4.10;;;;;;;28.26;45.50;101813.19;5100116;28;20041;-71
2022/07/13 09:13:44;;;;;;;15.35;4.10;;;;;;;28.24;46.12;101812.47;5094673;28;20040;-72
2022/07/13 09:16:16;;;;;;;10.20;3.83;;;;;;;28.24;45.91;101812.47;5111610;28;20067;-71
2022/07/13 09:18:52;;;;;;;8.70;4.13;;;;;;;28.24;45.69;101813.34;5107105;28;20033;-71
2022/07/13 09:21:32;;;;;;;9.18;4.20;;;;;;;28.30;45.33;101811.94;5112979;28;20050;-72
2022/07/13 09:24:03;;;;;;;11.55;4.03;;;;;;;28.39;45.23;101804.81;5094881;28;20119;-71
2022/07/13 09:26:47;;;;;;;11.60;3.72;;;;;;;28.57;45.00;101804.97;5098386;28;20132;-71
2022/07/13 09:29:15;;;;;;;7.25;3.80;;;;;;;28.64;44.91;101801.53;5098865;28;20098;-70
2022/07/13 09:31:54;;;;;;;14.80;4.43;;;;;;;28.76;44.91;101810.41;5110821;28;20075;-71
2022/07/13 09:34:54;;;;;;;13.20;4.10;;;;;;;28.91;45.08;101813.56;5113020;28;20076;-70
2022/07/13 09:37:26;;;;;;;7.00;3.80;;;;;;;29.07;43.70;101806.69;5112473;28;20048;-73
2022/07/13 09:40:11;;;;;;;6.00;3.42;;;;;;;29.12;42.35;101817.97;5110588;28;20040;-73
2022/07/13 09:42:42;;;;;;;7.80;3.60;;;;;;;29.02;42.87;101814.41;5105744;28;20033;-73
2022/07/13 09:48:00;;;;;;;9.02;3.28;;;;;;;29.02;43.31;101822.53;5128459;27;20047;-74
2022/07/13 09:50:41;;;;;;;5.22;2.65;;;;;;;29.05;43.26;101817.69;5112535;28;20830;-74
2022/07/13 09:53:31;;;;;;;8.90;3.50;;;;;;;29.08;41.96;101816.56;5095778;28;20044;-74
2022/07/13 09:56:02;;;;;;;8.23;3.42;;;;;;;29.02;42.24;101806.25;5092026;28;20048;-72
2022/07/13 09:58:34;;;;;;;6.65;2.80;;;;;;;29.02;42.43;101814.41;5090401;28;20060;-71
2022/07/13 10:01:03;;;;;;;6.55;3.03;;;;;;;29.21;42.44;101822.50;5092047;28;20037;-72
2022/07/13 10:03:32;;;;;;;13.60;3.58;;;;;;;29.22;41.08;101826.94;5091213;28;20052;-71
2022/07/13 10:06:02;;;;;;;7.55;2.78;;;;;;;29.19;41.36;101829.09;5107995;28;20045;-72
2022/07/13 10:08:30;;;;;;;15.75;3.00;;;;;;;29.17;41.96;101831.97;5107464;28;20709;-74
2022/07/13 10:11:04;;;;;;;25.95;3.47;;;;;;;29.29;41.08;101833.53;5091244;28;20112;-69
2022/07/13 10:13:34;;;;;;;9.95;3.00;;;;;;;29.31;39.94;101832.50;5085527;28;20049;-70
2022/07/13 10:16:03;;;;;;;13.05;2.75;;;;;;;29.25;39.57;101839.38;5063118;28;20144;-72
2022/07/13 10:18:37;;;;;;;5.65;2.65;;;;;;;29.18;39.56;101841.81;5075481;28;20131;-70
2022/07/13 10:21:40;;;;;;;6.43;3.00;;;;;;;29.15;40.53;101831.25;5061266;28;20049;-70
2022/07/13 10:24:20;;;;;;;4.93;2.50;;;;;;;29.06;41.19;101845.69;5060954;28;20120;-71
2022/07/13 10:26:48;;;;;;;12.27;3.00;;;;;;;29.11;41.80;101846.09;5071167;28;20465;-72
2022/07/13 10:29:16;;;;;;;24.27;4.07;;;;;;;29.39;41.07;101838.09;5067473;28;20038;-75
2022/07/13 10:31:43;;;;;;;10.63;3.30;;;;;;;29.63;40.58;101826.72;5062295;28;20041;-74
2022/07/13 10:34:13;;;;;;;9.55;2.38;;;;;;;29.88;39.44;101819.75;5059470;28;20144;-74
2022/07/13 10:36:50;;;;;;;28.50;4.60;;;;;;;30.04;38.97;101829.13;5060022;28;20684;-73
2022/07/13 10:39:26;;;;;;;13.98;3.10;;;;;;;30.34;38.60;101827.09;5051334;28;20476;-74
2022/07/13 10:42:07;;;;;;;5.22;2.42;;;;;;;30.53;38.63;101831.59;5050754;28;20107;-75
2022/07/13 10:44:35;;;;;;;11.65;2.55;;;;;;;30.57;38.10;101830.28;5065764;28;20037;-75
2022/07/13 10:47:04;;;;;;;43.38;5.00;;;;;;;30.54;36.47;101829.72;5065573;28;20045;-75
2022/07/13 10:49:35;;;;;;;4.97;2.40;;;;;;;30.29;36.02;101830.28;5054193;28;20923;-75
2022/07/13 10:55:34;;;;;;;13.13;2.00;;;;;;;30.32;36.96;101829.97;5061505;28;20111;-75
2022/07/13 10:58:30;;;;;;;;;;;;;;;30.36;36.20;101825.97;5055373;28;20053;-75
2022/07/13 11:01:43;;;;;;;80.15;7.80;;;;;;;30.50;35.32;101830.00;5074493;28;19979;-71
2022/07/13 11:04:15;;;;;;;6.28;1.98;;;;;;;30.60;35.00;101831.84;5063581;28;20042;-72
2022/07/13 11:07:07;;;;;;;6.20;1.70;;;;;;;30.70;35.69;101837.19;5062533;28;20048;-71
2022/07/13 11:09:35;;;;;;;4.60;1.85;;;;;;;30.96;35.21;101829.94;5072128;28;20077;-71
2022/07/13 11:12:22;;;;;;;3.35;1.60;;;;;;;31.13;33.89;101830.09;5064852;28;20104;-70
2022/07/13 11:14:50;;;;;;;5.30;2.00;;;;;;;31.22;34.54;101834.59;5054649;28;20179;-72
2022/07/13 11:17:23;;;;;;;6.10;1.83;;;;;;;31.09;33.75;101834.97;5093393;28;20056;-72
2022/07/13 11:20:07;;;;;;;3.78;1.55;;;;;;;30.99;33.88;101835.06;5090786;28;20575;-72
2022/07/13 11:25:55;;;;;;;7.95;2.03;;;;;;;30.78;34.58;101829.97;5093992;28;20045;-71
2022/07/13 11:28:36;;;;;;;27.60;3.55;;;;;;;30.56;34.08;101835.84;5103162;28;20047;-71
2022/07/13 11:31:04;;;;;;;5.45;1.98;;;;;;;30.66;33.58;101832.06;5114661;28;20051;-71
2022/07/13 11:33:31;;;;;;;6.75;1.80;;;;;;;30.88;34.15;101837.19;5113297;28;20066;-71
2022/07/13 11:36:00;;;;;;;5.95;1.92;;;;;;;31.02;35.13;101831.19;5093417;28;20036;-71
2022/07/13 11:38:36;;;;;;;16.80;2.47;;;;;;;31.19;34.59;101834.91;5093944;28;20051;-72
2022/07/13 11:41:05;;;;;;;12.35;2.30;;;;;;;31.23;34.79;101830.00;5093367;28;20036;-71
2022/07/13 11:43:32;;;;;;;2.92;1.85;;;;;;;31.25;33.98;101828.84;5073669;28;20056;-72
2022/07/13 11:45:59;;;;;;;7.20;1.92;;;;;;;31.23;34.37;101830.84;5073310;28;20123;-72